Time;durP1;ratioP1;P1;durP2;ratioP2;P2;SDS_P1;SDS_P2;PMS_P1;PMS_P2;Temp;Humidity;BMP_temperature;BMP_pressure;BME280_temperature;BME280_humidity;BME280_pressure;Samples;Min_cycle;Max_cycle;Signal;HPM_P1;HPM_P2
2022/05/01 00:00:26;;;;;;;36.30;18.05;;;;;;;4.77;69.00;100283.97;1752933;81;21542;-75
2022/05/01 00:02:52;;;;;;;45.03;20.15;;;;;;;4.75;69.14;100285.70;1752536;81;21984;-75
2022/05/01 00:05:19;;;;;;;43.78;19.40;;;;;;;4.73;69.25;100282.68;1752396;81;21963;-75
2022/05/01 00:07:46;;;;;;;38.10;19.80;;;;;;;4.71;69.43;100281.37;1752642;80;21056;-75
2022/05/01 00:10:14;;;;;;;49.98;24.25;;;;;;;4.69;69.45;100288.33;1752196;81;21069;-75
2022/05/01 00:12:40;;;;;;;57.30;25.30;;;;;;;4.65;69.40;100286.12;1752457;81;21116;-75
2022/05/01 00:15:08;;;;;;;45.03;23.80;;;;;;;4.63;69.30;100284.39;1752451;81;21770;-75
2022/05/01 00:17:36;;;;;;;52.30;25.65;;;;;;;4.58;69.37;100290.89;1752471;81;21071;-75
2022/05/01 00:20:03;;;;;;;59.93;32.73;;;;;;;4.56;69.45;100288.72;1752248;81;21072;-74
2022/05/01 00:22:30;;;;;;;69.03;32.38;;;;;;;4.53;69.52;100293.06;1752037;81;21185;-75
2022/05/01 00:25:01;;;;;;;59.58;28.98;;;;;;;4.48;69.56;100283.06;1752764;81;21246;-75
2022/05/01 00:27:27;;;;;;;57.33;27.27;;;;;;;4.44;69.75;100290.86;1752468;80;21096;-74
2022/05/01 00:29:55;;;;;;;47.45;24.25;;;;;;;4.44;69.94;100287.40;1728154;81;21063;-75
2022/05/01 00:32:22;;;;;;;48.28;22.25;;;;;;;4.41;70.17;100296.06;1744167;81;21610;-75
2022/05/01 00:37:33;;;;;;;38.55;19.90;;;;;;;4.32;70.26;100299.95;1743696;82;21000;-74
2022/05/01 00:40:00;;;;;;;31.80;18.15;;;;;;;4.28;70.32;100298.19;1744018;82;21086;-74
2022/05/01 00:42:26;;;;;;;36.08;18.82;;;;;;;4.29;70.50;100305.16;1743528;82;21005;-73
2022/05/01 00:44:53;;;;;;;35.52;19.17;;;;;;;4.28;70.41;100309.91;1743592;82;21166;-74
2022/05/01 00:47:19;;;;;;;36.40;19.73;;;;;;;4.26;70.59;100303.83;1743613;82;21099;-74
2022/05/01 00:49:46;;;;;;;35.65;21.02;;;;;;;4.24;70.66;100306.42;1743849;82;21039;-74
2022/05/01 00:52:13;;;;;;;38.58;20.65;;;;;;;4.24;70.64;100309.47;1744013;82;21246;-74
2022/05/01 00:54:42;;;;;;;40.38;20.62;;;;;;;4.21;70.68;100308.16;1743322;82;21056;-74
2022/05/01 00:57:08;;;;;;;39.45;20.97;;;;;;;4.18;70.60;100308.13;1743550;82;21025;-74
2022/05/01 00:59:37;;;;;;;37.80;20.70;;;;;;;4.16;70.66;100309.88;1743718;82;21511;-74
2022/05/01 01:02:06;;;;;;;33.78;18.07;;;;;;;4.13;70.95;100307.25;1743671;82;21047;-74
2022/05/01 01:04:33;;;;;;;36.30;19.17;;;;;;;4.13;71.13;100308.11;1743469;82;21245;-74
2022/05/01 01:07:00;;;;;;;47.15;21.97;;;;;;;4.13;71.20;100315.06;1743353;82;21072;-74
2022/05/01 01:09:27;;;;;;;43.50;22.20;;;;;;;4.08;71.23;100309.41;1743347;82;22332;-74
2022/05/01 01:14:40;;;;;;;;;;;;;;;4.02;71.46;100310.67;1746041;82;21056;-73
2022/05/01 01:17:07;;;;;;;56.02;26.65;;;;;;;3.99;71.44;100309.35;1743781;82;21139;-74
2022/05/01 01:19:33;;;;;;;61.92;30.55;;;;;;;3.96;71.28;100306.73;1743491;82;21115;-74
2022/05/01 01:22:00;;;;;;;62.60;29.60;;;;;;;3.88;71.05;100308.42;1743575;82;21032;-74
2022/05/01 01:24:27;;;;;;;49.23;25.25;;;;;;;3.81;71.11;100314.47;1743836;82;21082;-74
2022/05/01 01:26:54;;;;;;;50.05;26.00;;;;;;;3.78;71.30;100311.84;1743579;82;21047;-74
2022/05/01 01:32:08;;;;;;;61.45;29.40;;;;;;;3.72;71.65;100311.37;1743702;82;26547;-79
2022/05/01 01:34:36;;;;;;;57.90;28.87;;;;;;;3.70;71.69;100313.97;1743583;82;22272;-79
2022/05/01 01:37:06;;;;;;;62.62;28.77;;;;;;;3.67;71.69;100308.74;1743391;82;21354;-79
2022/05/01 01:39:33;;;;;;;66.57;30.40;;;;;;;3.65;71.79;100309.17;1719684;82;21074;-78
2022/05/01 01:41:59;;;;;;;60.05;29.12;;;;;;;3.64;71.94;100311.32;1743934;82;21160;-79
2022/05/01 01:44:29;;;;;;;60.48;28.07;;;;;;;3.64;71.93;100311.76;1743513;82;21111;-75
2022/05/01 01:46:54;;;;;;;59.77;27.82;;;;;;;3.66;72.00;100315.23;1743715;82;21167;-75
2022/05/01 01:49:22;;;;;;;60.67;27.77;;;;;;;3.68;72.01;100322.20;1743809;82;21036;-75
2022/05/01 01:51:50;;;;;;;62.83;29.52;;;;;;;3.67;72.12;100319.16;1743314;82;21042;-75
2022/05/01 01:54:16;;;;;;;66.35;29.12;;;;;;;3.67;72.15;100318.29;1744066;82;21053;-75
2022/05/01 01:56:43;;;;;;;57.45;26.30;;;;;;;3.66;72.28;100320.00;1739801;82;21070;-75
2022/05/01 01:59:11;;;;;;;61.48;28.62;;;;;;;3.62;72.40;100319.55;1732004;82;21061;-75
2022/05/01 02:01:43;;;;;;;58.08;27.85;;;;;;;3.61;72.52;100319.10;1732028;82;21089;-75
2022/05/01 02:04:10;;;;;;;56.90;26.65;;;;;;;3.58;72.66;100326.02;1732495;82;21561;-74
2022/05/01 02:06:37;;;;;;;54.42;26.60;;;;;;;3.57;72.70;100321.70;1732257;82;21150;-75
2022/05/01 02:09:06;;;;;;;55.83;25.88;;;;;;;3.58;72.92;100329.52;1732208;82;21039;-75
2022/05/01 02:11:36;;;;;;;54.23;25.70;;;;;;;3.55;73.04;100330.80;1731975;82;21639;-75
2022/05/01 02:14:03;;;;;;;51.40;26.55;;;;;;;3.52;73.18;100322.52;1734324;82;21663;-75
2022/05/01 02:16:30;;;;;;;54.83;26.25;;;;;;;3.51;73.14;100325.11;1735766;82;21049;-75
2022/05/01 02:18:56;;;;;;;53.92;26.27;;;;;;;3.49;73.11;100326.83;1735487;82;21895;-75
2022/05/01 02:21:35;;;;;;;50.55;24.63;;;;;;;3.46;73.09;100328.11;1735844;82;21041;-74
2022/05/01 02:24:09;;;;;;;56.92;26.93;;;;;;;3.44;73.26;100328.53;1735794;82;21493;-75
2022/05/01 02:26:36;;;;;;;51.95;26.02;;;;;;;3.44;73.30;100331.13;1735783;82;21070;-75
2022/05/01 02:29:12;;;;;;;53.38;26.30;;;;;;;3.42;73.43;100335.46;1735730;81;21022;-74
2022/05/01 02:31:41;;;;;;;54.38;26.27;;;;;;;3.39;73.60;100336.73;1735680;82;21440;-75
2022/05/01 02:34:09;;;;;;;59.20;27.98;;;;;;;3.38;73.71;100334.98;1735635;82;20990;-75
2022/05/01 02:36:36;;;;;;;63.73;30.02;;;;;;;3.37;73.77;100335.86;1734144;82;21011;-75
2022/05/01 02:39:02;;;;;;;66.97;30.60;;;;;;;3.35;73.83;100338.00;1732365;82;21094;-75
2022/05/01 02:41:29;;;;;;;69.75;31.55;;;;;;;3.35;73.71;100335.41;1732133;82;21065;-75
2022/05/01 02:43:56;;;;;;;75.00;32.50;;;;;;;3.35;73.74;100340.61;1732468;82;21224;-75
2022/05/01 02:46:26;;;;;;;89.13;36.95;;;;;;;3.34;73.93;100338.84;1732190;82;21046;-75
2022/05/01 02:48:53;;;;;;;90.40;38.78;;;;;;;3.34;73.91;100336.25;1732457;82;21034;-75
2022/05/01 02:51:19;;;;;;;85.53;35.40;;;;;;;3.32;73.93;100335.37;1732223;82;21081;-75
2022/05/01 02:53:45;;;;;;;80.05;33.73;;;;;;;3.31;73.92;100333.65;1732502;82;21170;-75
2022/05/01 02:56:13;;;;;;;72.58;33.45;;;;;;;3.29;73.98;100337.95;1732113;82;21556;-74
2022/05/01 02:58:39;;;;;;;82.20;34.88;;;;;;;3.30;74.02;100342.30;1742872;82;21111;-75
2022/05/01 03:01:06;;;;;;;82.42;35.10;;;;;;;3.29;74.13;100340.55;1743733;82;21087;-75
2022/05/01 03:03:34;;;;;;;88.97;37.55;;;;;;;3.29;74.24;100336.64;1743605;82;21008;-75
2022/05/01 03:06:00;;;;;;;89.70;38.28;;;;;;;3.30;74.25;100337.09;1743713;82;21051;-75
2022/05/01 03:08:28;;;;;;;85.50;35.78;;;;;;;3.30;74.27;100334.50;1743644;82;21226;-75
2022/05/01 03:10:56;;;;;;;80.97;35.30;;;;;;;3.32;74.25;100340.57;1743601;82;21095;-75
2022/05/01 03:13:22;;;;;;;75.15;32.45;;;;;;;3.35;74.30;100340.61;1743888;82;21067;-76
2022/05/01 03:15:49;;;;;;;74.70;33.20;;;;;;;3.39;74.27;100338.03;1743610;82;20993;-75
2022/05/01 03:23:46;;;;;;;;;;;;;;;3.51;74.58;100349.83;1746152;82;21047;-76
2022/05/01 03:26:13;;;;;;;79.40;34.80;;;;;;;3.55;74.45;100349.01;1743724;82;20517;-75
2022/05/01 03:28:39;;;;;;;92.15;38.45;;;;;;;3.61;74.35;100350.33;1743565;82;21567;-75
2022/05/01 03:31:09;;;;;;;77.30;34.58;;;;;;;3.66;74.36;100351.23;1743563;82;21079;-75
2022/05/01 03:33:35;;;;;;;70.42;31.93;;;;;;;3.72;74.35;100348.68;1743642;82;21168;-75
2022/05/01 03:36:06;;;;;;;55.98;28.57;;;;;;;3.82;74.22;100350.92;1743534;82;21514;-75
2022/05/01 03:38:37;;;;;;;66.17;30.17;;;;;;;3.89;74.20;100347.48;1743727;82;20985;-75
2022/05/01 03:41:05;;;;;;;70.50;29.48;;;;;;;4.00;73.95;100352.77;1743091;82;21205;-75
2022/05/01 03:43:33;;;;;;;64.70;28.75;;;;;;;4.08;74.17;100353.69;1720914;82;21087;-75
2022/05/01 03:46:00;;;;;;;66.85;28.52;;;;;;;4.17;74.09;100351.55;1743751;82;21075;-76
2022/05/01 03:48:27;;;;;;;58.30;28.55;;;;;;;4.25;74.09;100353.77;1743614;82;21012;-74
2022/05/01 03:50:55;;;;;;;56.98;27.62;;;;;;;4.34;74.27;100351.63;1743467;82;21514;-75
2022/05/01 03:53:21;;;;;;;57.67;28.42;;;;;;;4.45;74.37;100352.55;1743726;82;21091;-75
2022/05/01 03:55:48;;;;;;;53.92;29.92;;;;;;;4.61;74.57;100344.78;1743914;82;21063;-75
2022/05/01 03:58:14;;;;;;;53.58;31.15;;;;;;;4.76;74.26;100350.03;1743563;82;21119;-75
2022/05/01 04:00:44;;;;;;;54.83;32.00;;;;;;;4.89;74.09;100344.83;1743578;82;21055;-76
2022/05/01 04:03:14;;;;;;;63.73;34.83;;;;;;;5.00;74.00;100345.28;1743684;82;21086;-75
2022/05/01 04:05:41;;;;;;;68.30;36.83;;;;;;;5.11;73.94;100349.23;1743619;82;21071;-74
2022/05/01 04:08:09;;;;;;;66.17;37.17;;;;;;;5.20;73.66;100353.58;1746383;81;21127;-75
2022/05/01 04:10:41;;;;;;;59.98;31.45;;;;;;;5.27;73.47;100359.23;1752401;81;21156;-76
2022/05/01 04:13:11;;;;;;;54.75;30.85;;;;;;;5.33;73.61;100355.33;1752355;81;21552;-75
2022/05/01 04:15:38;;;;;;;58.70;32.23;;;;;;;5.40;73.37;100357.06;1752995;81;21010;-75
2022/05/01 04:18:06;;;;;;;58.25;31.82;;;;;;;5.46;73.09;100361.39;1752446;81;21670;-75
2022/05/01 04:20:33;;;;;;;55.52;32.03;;;;;;;5.52;72.74;100357.48;1752187;81;21075;-75
2022/05/01 04:23:00;;;;;;;59.85;35.38;;;;;;;5.58;72.53;100361.41;1752406;81;21156;-75
2022/05/01 04:25:29;;;;;;;61.40;34.58;;;;;;;5.64;72.36;100360.52;1752733;81;21532;-75
2022/05/01 04:28:06;;;;;;;69.87;36.45;;;;;;;5.69;72.20;100365.75;1752196;81;21061;-76
2022/05/01 04:30:34;;;;;;;60.40;34.43;;;;;;;5.74;72.24;100371.39;1752441;81;21115;-75
2022/05/01 04:33:05;;;;;;;61.00;34.35;;;;;;;5.81;72.09;100373.56;1752650;81;21005;-75
2022/05/01 04:35:37;;;;;;;67.27;36.35;;;;;;;5.87;72.04;100381.39;1752118;81;21183;-75
2022/05/01 04:38:07;;;;;;;63.95;35.05;;;;;;;5.92;71.93;100375.73;1752825;81;21500;-75
2022/05/01 04:40:38;;;;;;;57.55;32.23;;;;;;;5.97;71.87;100374.45;1752492;81;20993;-75
2022/05/01 04:43:09;;;;;;;54.00;30.15;;;;;;;6.02;71.97;100367.89;1752510;81;21052;-75
2022/05/01 04:45:37;;;;;;;54.55;29.55;;;;;;;6.08;71.65;100373.11;1746485;81;21566;-75
2022/05/01 04:48:05;;;;;;;50.43;28.50;;;;;;;6.12;71.40;100373.11;1743783;82;21148;-75
2022/05/01 04:50:31;;;;;;;49.58;28.15;;;;;;;6.21;71.17;100379.19;1743549;82;21610;-75
2022/05/01 04:53:00;;;;;;;55.43;27.30;;;;;;;6.29;71.32;100382.20;1743247;82;21584;-75
2022/05/01 04:55:27;;;;;;;52.98;27.52;;;;;;;6.39;71.70;100376.92;1743758;82;21115;-75
2022/05/01 04:57:54;;;;;;;49.70;27.25;;;;;;;6.51;71.92;100367.75;1743634;82;21139;-75
2022/05/01 05:00:20;;;;;;;49.35;26.85;;;;;;;6.61;71.90;100373.36;1743616;82;21091;-75
2022/05/01 05:02:51;;;;;;;51.65;26.02;;;;;;;6.73;72.04;100370.27;1743394;82;21071;-76
2022/05/01 05:05:19;;;;;;;46.00;25.85;;;;;;;6.83;72.55;100366.27;1743932;82;21008;-75
2022/05/01 05:07:46;;;;;;;44.85;25.50;;;;;;;6.97;72.79;100368.80;1743479;82;21638;-75
2022/05/01 05:10:14;;;;;;;47.55;23.52;;;;;;;7.07;72.45;100371.78;1743836;82;21072;-75
2022/05/01 05:12:42;;;;;;;52.88;25.35;;;;;;;7.21;72.19;100373.02;1743901;82;21112;-75
2022/05/01 05:15:15;;;;;;;39.95;23.62;;;;;;;7.35;72.29;100375.53;1743499;82;21064;-75
2022/05/01 05:17:43;;;;;;;39.92;20.75;;;;;;;7.49;71.67;100377.17;1743479;82;21130;-75
2022/05/01 05:20:11;;;;;;;31.00;17.25;;;;;;;7.66;70.75;100370.03;1743486;82;21617;-75
2022/05/01 05:22:41;;;;;;;30.68;15.00;;;;;;;7.83;68.83;100369.01;1743762;82;21107;-75
2022/05/01 05:25:10;;;;;;;27.90;13.80;;;;;;;7.97;67.57;100369.75;1743638;82;21120;-75
2022/05/01 05:27:37;;;;;;;23.87;12.80;;;;;;;8.12;66.78;100373.52;1743501;82;21050;-75
2022/05/01 05:30:05;;;;;;;31.75;13.20;;;;;;;8.30;65.69;100362.39;1743896;82;21067;-75
2022/05/01 05:32:31;;;;;;;17.32;11.22;;;;;;;8.47;64.90;100368.34;1743748;82;21633;-75
2022/05/01 05:34:58;;;;;;;14.25;9.45;;;;;;;8.65;62.44;100365.05;1743480;82;21059;-75
2022/05/01 05:37:25;;;;;;;17.57;9.68;;;;;;;8.83;61.30;100363.50;1743316;82;21092;-75
2022/05/01 05:39:51;;;;;;;13.90;7.95;;;;;;;9.00;60.36;100363.71;1743554;82;21052;-75
2022/05/01 05:42:20;;;;;;;11.15;6.85;;;;;;;9.13;59.61;100366.58;1743350;82;21161;-75
2022/05/01 05:44:46;;;;;;;9.50;5.08;;;;;;;9.27;58.41;100361.97;1743501;82;21080;-75
2022/05/01 05:47:13;;;;;;;12.33;5.95;;;;;;;9.41;56.77;100363.50;1743424;82;21066;-76
2022/05/01 05:49:40;;;;;;;7.67;5.45;;;;;;;9.54;54.68;100362.87;1743537;82;21148;-75
2022/05/01 05:52:07;;;;;;;12.53;7.12;;;;;;;9.69;54.03;100365.69;1743757;82;21130;-75
2022/05/01 05:54:34;;;;;;;10.72;5.92;;;;;;;9.79;53.03;100358.05;1743407;82;21059;-76
2022/05/01 05:57:00;;;;;;;18.10;9.93;;;;;;;9.92;52.52;100355.63;1743841;82;21683;-75
2022/05/01 05:59:26;;;;;;;19.40;10.20;;;;;;;10.09;51.79;100357.08;1735533;82;21041;-75
2022/05/01 06:01:54;;;;;;;19.42;11.40;;;;;;;10.20;51.09;100356.40;1735656;82;22001;-75
2022/05/01 06:04:20;;;;;;;11.20;6.65;;;;;;;10.33;50.32;100351.34;1735414;82;21623;-76
2022/05/01 06:06:46;;;;;;;10.15;4.60;;;;;;;10.45;49.21;100348.91;1735808;82;21005;-75
2022/05/01 06:09:14;;;;;;;7.67;5.03;;;;;;;10.57;48.61;100349.10;1735573;82;20975;-75
2022/05/01 06:11:41;;;;;;;4.30;3.55;;;;;;;10.69;47.99;100341.39;1735775;82;21682;-75
2022/05/01 06:14:09;;;;;;;5.58;4.10;;;;;;;10.83;46.60;100345.92;1735689;82;21459;-76
2022/05/01 06:16:38;;;;;;;7.90;4.10;;;;;;;10.95;46.09;100348.72;1733386;82;21006;-75
2022/05/01 06:19:05;;;;;;;6.62;4.05;;;;;;;11.06;46.92;100351.98;1735646;82;21068;-75
2022/05/01 06:21:33;;;;;;;5.40;3.87;;;;;;;11.20;46.85;100355.60;1736102;82;21053;-75
2022/05/01 06:23:59;;;;;;;8.13;4.17;;;;;;;11.34;46.55;100347.36;1735688;82;21144;-76
2022/05/01 06:26:26;;;;;;;6.50;4.03;;;;;;;11.47;46.85;100347.94;1735954;82;21129;-75
2022/05/01 06:28:54;;;;;;;4.92;3.60;;;;;;;11.61;46.60;100347.58;1735742;82;21027;-76
2022/05/01 06:31:21;;;;;;;5.03;3.80;;;;;;;11.73;46.34;100349.89;1735976;82;22091;-75
2022/05/01 06:33:47;;;;;;;6.17;2.87;;;;;;;11.87;45.63;100353.05;1735790;81;21002;-75
2022/05/01 06:36:17;;;;;;;3.12;2.80;;;;;;;11.97;43.13;100351.49;1706654;82;21060;-75
2022/05/01 06:38:44;;;;;;;3.90;2.77;;;;;;;12.03;42.89;100340.78;1735828;82;22055;-75
2022/05/01 06:41:11;;;;;;;4.62;2.08;;;;;;;12.11;41.55;100344.55;1731412;82;22050;-74
2022/05/01 06:43:39;;;;;;;6.00;2.00;;;;;;;12.17;42.42;100339.97;1732427;82;21062;-76
2022/05/01 06:46:06;;;;;;;3.70;1.90;;;;;;;12.24;41.59;100341.52;1732590;82;20990;-75
2022/05/01 06:48:32;;;;;;;2.47;2.10;;;;;;;12.34;42.22;100343.88;1732639;82;21070;-74
2022/05/01 06:51:01;;;;;;;3.40;2.25;;;;;;;12.45;42.33;100343.13;1732418;82;21109;-75
2022/05/01 06:53:27;;;;;;;2.90;2.20;;;;;;;12.56;41.83;100341.50;1732138;82;21086;-75
2022/05/01 06:55:56;;;;;;;5.47;2.35;;;;;;;12.63;40.87;100335.98;1732143;82;21125;-76
2022/05/01 06:58:23;;;;;;;2.45;2.17;;;;;;;12.70;40.72;100335.34;1732377;82;21007;-75
2022/05/01 07:00:51;;;;;;;3.52;2.27;;;;;;;12.80;40.75;100339.89;1732597;82;21031;-76
2022/05/01 07:03:20;;;;;;;3.85;2.10;;;;;;;12.88;39.90;100342.28;1732428;82;21143;-76
2022/05/01 07:05:47;;;;;;;5.95;2.12;;;;;;;12.95;39.18;100343.84;1732095;82;21149;-76
2022/05/01 07:08:13;;;;;;;1.98;1.85;;;;;;;13.01;39.13;100336.59;1732770;82;20995;-77
2022/05/01 07:10:41;;;;;;;3.52;2.22;;;;;;;13.12;39.78;100334.06;1732184;82;20994;-76
2022/05/01 07:13:10;;;;;;;5.28;2.00;;;;;;;13.24;40.18;100334.97;1732112;82;21046;-76
2022/05/01 07:15:40;;;;;;;2.45;1.65;;;;;;;13.36;40.15;100337.27;1732726;82;21167;-75
2022/05/01 07:18:07;;;;;;;5.22;1.55;;;;;;;13.50;40.17;100335.91;1732088;82;21045;-75
2022/05/01 07:20:35;;;;;;;4.03;1.52;;;;;;;13.61;38.80;100332.46;1732212;82;20983;-75
2022/05/01 07:23:03;;;;;;;2.02;1.60;;;;;;;13.71;38.73;100335.19;1732524;82;20999;-75
2022/05/01 07:25:30;;;;;;;2.15;1.42;;;;;;;13.82;37.57;100332.19;1732838;82;21014;-75
2022/05/01 07:27:56;;;;;;;2.22;1.90;;;;;;;13.94;38.17;100323.81;1732389;82;21104;-75
2022/05/01 07:30:23;;;;;;;1.77;1.50;;;;;;;14.09;36.68;100330.34;1732699;82;21035;-75
2022/05/01 07:32:49;;;;;;;2.17;1.77;;;;;;;14.17;36.02;100329.19;1732207;82;21097;-74
2022/05/01 07:35:16;;;;;;;3.17;1.40;;;;;;;14.19;36.30;100324.70;1732299;82;21070;-74
2022/05/01 07:37:42;;;;;;;9.10;1.80;;;;;;;14.20;35.89;100323.32;1732500;82;21403;-74
2022/05/01 07:40:10;;;;;;;4.28;1.70;;;;;;;14.22;35.96;100319.30;1732610;82;21258;-74
2022/05/01 07:42:36;;;;;;;1.80;1.67;;;;;;;14.30;36.01;100321.20;1732392;82;21046;-74
2022/05/01 07:45:04;;;;;;;2.40;1.60;;;;;;;14.46;36.18;100312.24;1732153;82;21175;-74
2022/05/01 07:47:31;;;;;;;2.75;1.70;;;;;;;14.66;35.44;100312.84;1732503;82;21105;-74
2022/05/01 07:49:57;;;;;;;8.88;2.02;;;;;;;14.78;33.87;100317.65;1732472;82;20998;-75
2022/05/01 07:52:25;;;;;;;2.08;1.45;;;;;;;14.75;33.50;100317.77;1732090;82;21140;-74
2022/05/01 07:54:52;;;;;;;2.87;1.35;;;;;;;14.73;33.44;100312.99;1734076;82;21525;-75
2022/05/01 07:57:20;;;;;;;2.33;1.50;;;;;;;14.67;32.58;100316.72;1735815;82;21167;-74
2022/05/01 07:59:47;;;;;;;4.00;1.80;;;;;;;14.61;32.92;100318.78;1747373;81;21048;-75
2022/05/01 08:02:13;;;;;;;3.37;1.92;;;;;;;14.50;32.98;100319.98;1752394;81;21064;-75
2022/05/01 08:04:41;;;;;;;2.55;1.32;;;;;;;14.45;32.77;100316.66;1752942;81;21102;-75
2022/05/01 08:07:08;;;;;;;5.50;1.60;;;;;;;14.46;32.58;100313.09;1752231;81;21049;-75
2022/05/01 08:09:36;;;;;;;1.40;1.30;;;;;;;14.44;32.32;100309.65;1752155;81;21610;-74
2022/05/01 08:12:06;;;;;;;4.92;1.30;;;;;;;14.46;32.55;100312.24;1752558;81;21119;-75
2022/05/01 08:14:33;;;;;;;5.53;1.60;;;;;;;14.45;32.32;100311.36;1752412;81;21085;-74
2022/05/01 08:16:59;;;;;;;2.08;1.80;;;;;;;14.45;32.39;100307.38;1752594;80;21129;-74
2022/05/01 08:22:11;;;;;;;7.30;1.80;;;;;;;14.42;32.81;100307.97;1752740;81;26491;-74
2022/05/01 08:24:37;;;;;;;2.55;1.72;;;;;;;14.39;32.74;100314.26;1752625;81;21060;-74
2022/05/01 08:27:05;;;;;;;2.65;1.60;;;;;;;14.34;32.65;100302.98;1752496;81;21053;-74
2022/05/01 08:29:33;;;;;;;2.90;2.30;;;;;;;14.33;33.13;100309.19;1752612;81;21132;-78
2022/05/01 08:32:00;;;;;;;4.08;1.75;;;;;;;14.32;33.43;100306.12;1745696;81;21083;-79
2022/05/01 08:34:27;;;;;;;2.20;1.90;;;;;;;14.34;33.40;100310.92;1743733;82;21071;-79
2022/05/01 08:36:55;;;;;;;3.08;1.82;;;;;;;14.38;33.76;100309.02;1719942;82;21072;-74
2022/05/01 08:39:22;;;;;;;2.47;1.80;;;;;;;14.43;33.33;100302.61;1743705;82;21084;-74
2022/05/01 08:41:49;;;;;;;4.45;1.95;;;;;;;14.45;32.89;100301.23;1743610;82;21170;-73
2022/05/01 08:44:16;;;;;;;6.20;1.95;;;;;;;14.43;32.40;100299.97;1743414;82;21087;-76
2022/05/01 08:47:16;;;;;;;5.12;1.90;;;;;;;14.39;32.33;100297.05;1743414;82;21115;-74
2022/05/01 08:49:43;;;;;;;2.45;1.70;;;;;;;14.41;32.53;100292.55;1686501;85;21684;-74
2022/05/01 08:52:10;;;;;;;2.65;1.90;;;;;;;14.48;32.28;100288.73;1686274;85;21525;-77
2022/05/01 08:54:36;;;;;;;1.90;1.80;;;;;;;14.58;31.92;100291.05;1709982;82;21798;-74
2022/05/01 08:57:04;;;;;;;3.60;1.70;;;;;;;14.62;31.56;100292.67;1743516;82;21016;-74
2022/05/01 08:59:31;;;;;;;5.30;1.77;;;;;;;14.61;32.03;100284.34;1743716;82;21094;-74
2022/05/01 09:01:58;;;;;;;7.33;2.05;;;;;;;14.67;32.34;100286.73;1743150;82;21091;-75
2022/05/01 09:04:25;;;;;;;3.52;1.87;;;;;;;14.79;31.54;100282.73;1743542;82;21001;-74
2022/05/01 09:06:53;;;;;;;2.42;1.95;;;;;;;14.92;31.73;100280.47;1743665;82;21107;-74
2022/05/01 09:09:22;;;;;;;2.65;2.10;;;;;;;15.11;31.95;100281.42;1743355;82;21036;-75
2022/05/01 09:14:35;;;;;;;3.47;1.90;;;;;;;15.58;32.39;100267.98;1743511;82;21050;-75
2022/05/01 09:17:18;;;;;;;2.58;2.22;;;;;;;15.82;32.10;100270.52;1743666;82;21075;-74
2022/05/01 09:19:50;;;;;;;6.50;2.08;;;;;;;16.01;31.37;100269.70;1743562;82;21142;-75
2022/05/01 09:22:17;;;;;;;3.33;2.10;;;;;;;16.05;30.62;100265.95;1743533;82;21630;-75
2022/05/01 09:24:44;;;;;;;5.10;2.27;;;;;;;16.13;31.15;100263.82;1743654;82;21126;-74
2022/05/01 09:27:27;;;;;;;4.33;1.87;;;;;;;16.23;31.50;100261.61;1743858;82;21425;-74
2022/05/01 09:30:12;;;;;;;5.53;2.17;;;;;;;16.27;31.15;100259.19;1743664;82;21098;-74
2022/05/01 09:32:40;;;;;;;2.15;1.95;;;;;;;16.31;31.36;100253.67;1743844;82;21110;-73
2022/05/01 09:35:17;;;;;;;4.92;1.67;;;;;;;16.35;30.98;100251.26;1743415;82;21106;-74
2022/05/01 09:37:44;;;;;;;2.05;1.62;;;;;;;16.39;31.27;100248.47;1741878;82;21210;-74
2022/05/01 09:40:13;;;;;;;2.67;1.87;;;;;;;16.42;31.52;100245.67;1743344;82;21083;-74
2022/05/01 09:42:40;;;;;;;2.67;2.12;;;;;;;16.49;31.12;100247.98;1743902;82;20988;-74
2022/05/01 09:45:09;;;;;;;4.62;2.20;;;;;;;16.55;30.83;100245.48;1743306;82;21838;-73
2022/05/01 09:47:43;;;;;;;5.75;2.35;;;;;;;16.59;30.02;100244.86;1743397;82;21032;-73
2022/05/01 09:50:11;;;;;;;2.70;1.98;;;;;;;16.59;30.17;100245.72;1743752;82;28678;-74
2022/05/01 09:53:01;;;;;;;3.12;2.22;;;;;;;16.65;30.73;100238.79;1722259;81;21121;-74
2022/05/01 09:55:29;;;;;;;2.47;2.08;;;;;;;16.78;30.89;100239.52;1752606;81;21071;-75
2022/05/01 09:58:12;;;;;;;4.30;2.20;;;;;;;16.91;30.73;100243.33;1752280;81;21128;-74
2022/05/01 10:00:44;;;;;;;2.62;2.10;;;;;;;16.94;30.89;100248.50;1752159;81;21029;-75
2022/05/01 10:03:28;;;;;;;4.05;2.30;;;;;;;17.02;30.60;100246.33;1752299;81;21020;-75
2022/05/01 10:05:57;;;;;;;5.60;2.50;;;;;;;17.08;30.80;100247.84;1752380;81;21083;-74
2022/05/01 10:08:25;;;;;;;2.62;2.30;;;;;;;17.15;30.77;100249.24;1752543;81;21523;-74
2022/05/01 10:10:58;;;;;;;4.92;2.00;;;;;;;17.18;29.49;100245.55;1752153;81;22069;-74
2022/05/01 10:13:25;;;;;;;4.92;2.70;;;;;;;17.11;29.31;100233.52;1727911;81;21020;-74
2022/05/01 10:15:52;;;;;;;2.87;2.22;;;;;;;17.01;28.93;100237.09;1752518;81;21132;-74
2022/05/01 10:18:19;;;;;;;3.02;2.25;;;;;;;16.89;28.59;100239.89;1752520;81;21064;-74
2022/05/01 10:20:46;;;;;;;2.67;2.08;;;;;;;16.78;28.88;100235.53;1728950;81;21107;-74
2022/05/01 10:23:13;;;;;;;4.97;2.42;;;;;;;16.78;29.66;100239.06;1752565;81;21504;-75
2022/05/01 10:26:09;;;;;;;3.80;2.55;;;;;;;16.90;31.16;100234.98;1729093;81;20991;-75
2022/05/01 10:28:57;;;;;;;2.83;2.33;;;;;;;17.02;31.18;100235.69;1752418;81;21567;-75
2022/05/01 10:35:18;;;;;;;6.47;2.50;;;;;;;17.15;29.95;100233.28;1702657;81;21191;-75
2022/05/01 10:38:09;;;;;;;5.75;2.15;;;;;;;17.16;29.67;100229.67;1753002;81;21199;-75
2022/05/01 10:40:53;;;;;;;5.12;2.70;;;;;;;17.09;29.15;100222.95;1749690;81;21501;-75
2022/05/01 10:43:33;;;;;;;3.97;2.70;;;;;;;16.98;29.01;100226.16;1752942;81;21061;-77
2022/05/01 10:46:06;;;;;;;3.83;2.12;;;;;;;16.90;29.01;100223.02;1730727;82;21110;-76
2022/05/01 10:48:37;;;;;;;4.03;2.40;;;;;;;16.87;29.01;100217.84;1749189;81;20998;-74
2022/05/01 10:51:38;;;;;;;3.25;2.10;;;;;;;16.86;29.49;100221.43;1730600;82;21118;-75
2022/05/01 10:54:19;;;;;;;2.52;2.20;;;;;;;16.85;29.83;100221.06;1752401;81;21081;-75
2022/05/01 10:56:48;;;;;;;4.87;2.80;;;;;;;16.84;29.94;100219.29;1752489;81;21014;-74
2022/05/01 10:59:34;;;;;;;5.65;2.83;;;;;;;16.90;30.01;100215.05;1730757;82;21016;-74
2022/05/01 11:02:06;;;;;;;5.50;2.50;;;;;;;16.89;29.63;100214.64;1759955;81;21148;-74
2022/05/01 11:04:42;;;;;;;2.50;2.30;;;;;;;16.91;28.63;100211.42;1759990;81;21522;-74
2022/05/01 11:07:10;;;;;;;;;;;;;;;16.88;28.44;100209.80;1726421;83;20996;-75
2022/05/01 11:09:45;;;;;;;3.80;3.10;;;;;;;16.93;29.01;100203.37;1724314;83;20151;-75
2022/05/01 11:12:13;;;;;;;4.30;2.47;;;;;;;17.03;28.77;100205.52;1736615;81;21069;-75
2022/05/01 11:14:59;;;;;;;9.73;2.50;;;;;;;17.24;29.47;100194.72;1737284;81;21124;-75
2022/05/01 11:17:44;;;;;;;3.90;2.62;;;;;;;17.49;29.08;100198.78;1724078;82;21114;-75
2022/05/01 11:20:23;;;;;;;;;;;;;;;17.72;29.63;100190.44;1762678;81;21069;-74
2022/05/01 11:22:51;;;;;;;6.08;2.80;;;;;;;17.89;27.80;100190.04;1747293;82;20312;-75
2022/05/01 11:25:38;;;;;;;4.65;2.47;;;;;;;17.77;27.51;100187.05;1759756;81;21030;-75
2022/05/01 11:28:05;;;;;;;4.33;2.65;;;;;;;17.70;27.82;100189.66;1759761;81;21698;-75
2022/05/01 11:30:37;;;;;;;3.42;2.30;;;;;;;17.58;27.10;100190.30;1724054;83;21531;-75
2022/05/01 11:33:08;;;;;;;7.50;2.80;;;;;;;17.54;27.55;100184.28;1759835;81;21026;-74
2022/05/01 11:36:00;;;;;;;4.58;2.70;;;;;;;17.60;27.10;100185.75;1759896;81;20998;-74
2022/05/01 11:38:46;;;;;;;4.17;2.60;;;;;;;17.70;27.83;100187.45;1724046;82;20976;-74
2022/05/01 11:41:12;;;;;;;10.82;5.25;;;;;;;17.65;26.30;100179.70;1737630;81;21061;-73
2022/05/01 11:43:40;;;;;;;12.93;6.78;;;;;;;17.46;27.35;100183.34;1759773;81;21125;-74
2022/05/01 11:46:10;;;;;;;179.53;79.42;;;;;;;17.25;27.70;100182.67;1723850;83;21087;-73
2022/05/01 11:48:37;;;;;;;26.85;13.72;;;;;;;17.15;27.42;100189.89;1736230;81;21057;-79
2022/05/01 11:51:04;;;;;;;76.00;31.52;;;;;;;17.01;27.01;100186.13;1759827;81;21097;-78
2022/05/01 11:53:32;;;;;;;27.37;12.82;;;;;;;16.89;27.48;100174.33;1759635;81;21057;-79